Colhue Huapi, Argentina
Current Conditions -  °F | °C
As of 9:00 PM on Saturday 20 Dec 2014 (Local Time) from SAVC Reporting Station
Scattered Clouds Scattered Clouds  
Wind Chill: 54°   Ceiling: Unl
Heat Index: 54°   Visibility: 6mi
Dew Point: 41°   Wind: 2mph
Humidity: 62%   Direction: 270°W
Pressure: 29.8"   Gusts: NA
Location:  45.73°S, 68.93°W
Report Text: SAVC 210000Z 27002KT 9999 FEW040 SCT10012/05 Q1009
Loading
Personal Weather Stations






























Interactive Weather Map New forecast layout! Learn more

10-Day Weather Forecast

Advertisements
Track Severe Weather on mobile